createdAt,value
2019-01-21T00:01:06.732Z,55.91
2019-01-21T00:02:10.719Z,55.89
2019-01-21T00:03:15.204Z,55.83
2019-01-21T00:04:19.209Z,55.84
2019-01-21T00:05:23.376Z,55.80
2019-01-21T00:06:27.372Z,55.79
2019-01-21T00:07:31.527Z,55.72
2019-01-21T00:08:35.362Z,55.67
2019-01-21T00:09:39.551Z,55.64
2019-01-21T00:10:43.545Z,55.62
2019-01-21T00:11:48.027Z,55.53
2019-01-21T00:12:51.954Z,55.48
2019-01-21T00:13:55.946Z,55.48
2019-01-21T00:15:00.103Z,55.46
2019-01-21T00:16:04.233Z,55.48
2019-01-21T00:17:08.469Z,55.47
2019-01-21T00:18:12.458Z,55.45
2019-01-21T00:19:16.301Z,55.44
2019-01-21T00:20:20.544Z,55.36
2019-01-21T00:21:24.475Z,55.31
2019-01-21T00:22:28.477Z,55.26
2019-01-21T00:23:32.403Z,55.26
2019-01-21T00:24:36.695Z,55.25
2019-01-21T00:25:40.711Z,55.19
2019-01-21T00:26:44.772Z,55.14
2019-01-21T00:27:49.080Z,55.09
2019-01-21T00:28:53.592Z,55.02
2019-01-21T00:29:57.536Z,55.00
2019-01-21T00:31:01.562Z,55.01
2019-01-21T00:32:05.903Z,55.02
2019-01-21T00:33:09.923Z,55.04
2019-01-21T00:34:14.109Z,55.03
2019-01-21T00:35:18.119Z,55.03
2019-01-21T00:36:22.523Z,54.81
2019-01-21T00:37:26.449Z,54.74
2019-01-21T00:38:30.368Z,54.71
2019-01-21T00:39:34.297Z,54.72
2019-01-21T00:40:38.604Z,54.68
2019-01-21T00:41:42.455Z,54.54
2019-01-21T00:42:46.383Z,54.45
2019-01-21T00:43:50.380Z,54.47
2019-01-21T00:44:54.631Z,54.58
2019-01-21T00:45:58.573Z,54.64
2019-01-21T00:47:02.500Z,54.69
2019-01-21T00:48:06.836Z,54.71
2019-01-21T00:49:10.899Z,54.72
2019-01-21T00:50:15.556Z,54.70
2019-01-21T00:51:20.173Z,54.69
2019-01-21T00:52:24.208Z,54.70
2019-01-21T00:53:29.621Z,54.80
2019-01-21T00:54:33.691Z,54.79
2019-01-21T00:55:37.717Z,54.70
2019-01-21T00:56:41.720Z,54.63
2019-01-21T00:57:46.020Z,54.56
2019-01-21T00:58:50.328Z,54.36
2019-01-21T00:59:54.257Z,54.22
2019-01-21T01:00:58.286Z,54.25
2019-01-21T01:02:02.216Z,54.30
2019-01-21T01:03:06.641Z,54.31
2019-01-21T01:04:10.958Z,54.33
2019-01-21T01:05:15.815Z,54.29
2019-01-21T01:06:19.830Z,54.30
2019-01-21T01:07:23.828Z,54.24
2019-01-21T01:08:28.081Z,54.21
2019-01-21T01:09:32.323Z,54.21
2019-01-21T01:10:36.235Z,54.18
2019-01-21T01:11:40.499Z,54.15
2019-01-21T01:12:45.003Z,54.14
2019-01-21T01:13:48.999Z,54.01
2019-01-21T01:14:52.991Z,53.86
2019-01-21T01:15:57.525Z,53.91
2019-01-21T01:17:01.534Z,53.95
2019-01-21T01:18:05.876Z,54.06
2019-01-21T01:19:10.117Z,54.10
2019-01-21T01:20:16.173Z,54.14
2019-01-21T01:21:20.032Z,54.16
2019-01-21T01:22:23.960Z,54.13
2019-01-21T01:23:30.780Z,54.14
2019-01-21T01:24:34.632Z,54.15
2019-01-21T01:25:38.589Z,54.16
2019-01-21T01:26:42.845Z,54.16
2019-01-21T01:27:47.008Z,54.09
2019-01-21T01:28:51.168Z,54.12
2019-01-21T01:29:55.089Z,54.16
2019-01-21T01:30:59.242Z,54.14
2019-01-21T01:32:03.177Z,54.12
2019-01-21T01:33:07.429Z,54.14
2019-01-21T01:34:11.413Z,54.27
2019-01-21T01:35:16.868Z,54.37
2019-01-21T01:36:21.119Z,54.44
2019-01-21T01:37:25.047Z,54.52
2019-01-21T01:38:28.963Z,54.56
2019-01-21T01:39:33.122Z,54.56
2019-01-21T01:40:37.116Z,54.67
2019-01-21T01:41:41.107Z,54.78
2019-01-21T01:42:45.113Z,54.89
2019-01-21T01:43:48.987Z,54.98
2019-01-21T01:44:53.199Z,55.10
2019-01-21T01:45:57.126Z,55.22
2019-01-21T01:47:01.035Z,55.32
2019-01-21T01:48:06.051Z,55.38
2019-01-21T01:49:10.095Z,55.46
2019-01-21T01:50:14.183Z,55.52
2019-01-21T01:51:18.172Z,55.58
2019-01-21T01:52:22.160Z,55.69
2019-01-21T01:53:26.104Z,55.79
2019-01-21T01:54:30.460Z,55.85
2019-01-21T01:55:34.956Z,55.96
2019-01-21T01:56:39.228Z,56.06
2019-01-21T01:57:43.520Z,56.11
2019-01-21T01:58:47.439Z,56.16
2019-01-21T01:59:51.791Z,56.24
2019-01-21T02:00:55.790Z,56.29
2019-01-21T02:02:00.328Z,56.36
2019-01-21T02:03:04.515Z,56.47
2019-01-21T02:04:08.526Z,56.53
2019-01-21T02:05:12.951Z,56.56
2019-01-21T02:06:17.015Z,56.62
2019-01-21T02:07:21.011Z,56.67
2019-01-21T02:08:25.339Z,56.71
2019-01-21T02:09:29.340Z,56.77
2019-01-21T02:10:33.271Z,56.84
2019-01-21T02:11:37.300Z,56.94
2019-01-21T02:12:41.547Z,57.02
2019-01-21T02:13:45.752Z,57.10
2019-01-21T02:14:50.368Z,57.12
2019-01-21T02:15:54.569Z,57.08
2019-01-21T02:16:58.880Z,57.07
2019-01-21T02:18:02.926Z,57.07
2019-01-21T02:19:06.919Z,57.07
2019-01-21T02:20:12.686Z,57.07
2019-01-21T02:21:17.264Z,57.07
2019-01-21T02:22:23.660Z,57.05
2019-01-21T02:23:32.508Z,57.08
2019-01-21T02:24:40.921Z,57.11
2019-01-21T02:25:53.311Z,57.14
2019-01-21T02:27:31.795Z,57.14
2019-01-21T02:28:59.413Z,57.14
2019-01-21T02:30:17.025Z,57.14
2019-01-21T02:31:57.298Z,57.22
2019-01-21T02:33:42.555Z,57.27
2019-01-21T02:35:27.346Z,57.38
2019-01-21T02:37:00.324Z,57.41
2019-01-21T02:38:32.742Z,57.33
2019-01-21T02:40:05.546Z,57.35
2019-01-21T02:41:28.032Z,57.40
2019-01-21T02:43:19.092Z,57.40
2019-01-21T02:44:55.168Z,57.40
2019-01-21T02:46:40.211Z,57.39
2019-01-21T02:48:06.096Z,57.49
2019-01-21T02:49:32.757Z,57.54
2019-01-21T02:51:11.848Z,57.58
2019-01-21T02:52:37.857Z,57.64
2019-01-21T02:54:06.416Z,57.68
2019-01-21T02:55:47.819Z,57.75
2019-01-21T02:57:45.165Z,57.74
2019-01-21T02:59:10.892Z,57.72
2019-01-21T03:00:22.909Z,57.72
2019-01-21T03:02:04.913Z,57.80
2019-01-21T03:03:39.172Z,57.89
2019-01-21T03:05:29.676Z,57.80
2019-01-21T03:06:43.592Z,57.70
2019-01-21T03:08:37.801Z,57.59
2019-01-21T03:10:22.223Z,57.63
2019-01-21T03:12:09.570Z,57.50
2019-01-21T03:13:39.217Z,57.38
2019-01-21T03:15:10.422Z,57.32
2019-01-21T03:16:55.888Z,57.32
2019-01-21T03:18:28.226Z,57.34
2019-01-21T03:20:13.980Z,57.40
2019-01-21T03:21:43.745Z,57.48
2019-01-21T03:23:31.764Z,57.63
2019-01-21T03:25:24.418Z,57.79
2019-01-21T03:27:24.392Z,57.84
2019-01-21T03:29:11.314Z,57.89
2019-01-21T03:30:34.451Z,57.91
2019-01-21T03:32:03.104Z,57.93
2019-01-21T03:33:31.474Z,57.96
2019-01-21T03:35:04.390Z,57.94
2019-01-21T03:36:47.791Z,57.91
2019-01-21T03:38:39.015Z,57.89
2019-01-21T03:40:46.183Z,57.87
2019-01-21T03:42:06.172Z,57.85
2019-01-21T03:43:55.853Z,57.85
2019-01-21T03:46:10.738Z,57.93
2019-01-21T03:47:34.666Z,57.93
2019-01-21T03:48:48.308Z,58.02
2019-01-21T03:50:32.545Z,58.11
2019-01-21T03:52:11.701Z,58.12
2019-01-21T03:53:43.921Z,58.05
2019-01-21T03:54:58.918Z,58.09
2019-01-21T03:56:08.454Z,58.12
2019-01-21T03:57:33.601Z,58.09
2019-01-21T03:59:33.665Z,58.08
2019-01-21T04:00:53.509Z,58.04
2019-01-21T04:02:43.794Z,58.03
2019-01-21T04:04:08.526Z,58.01
2019-01-21T04:05:24.359Z,58.03
2019-01-21T04:06:56.938Z,58.15
2019-01-21T04:08:33.542Z,58.19
2019-01-21T04:10:04.287Z,58.15
2019-01-21T04:11:45.480Z,58.14
2019-01-21T04:13:18.686Z,58.25
2019-01-21T04:15:05.185Z,58.25
2019-01-21T04:16:27.837Z,58.19
2019-01-21T04:18:03.153Z,58.11
2019-01-21T04:19:42.384Z,58.11
2019-01-21T04:21:39.805Z,58.05
2019-01-21T04:23:12.390Z,58.02
2019-01-21T04:24:34.333Z,57.97
2019-01-21T04:26:22.369Z,58.00
2019-01-21T04:27:41.793Z,58.04
2019-01-21T04:29:29.355Z,57.98
2019-01-21T04:31:00.362Z,58.03
2019-01-21T04:32:37.294Z,58.01
2019-01-21T04:34:36.210Z,58.06
2019-01-21T04:36:20.076Z,58.08
2019-01-21T04:37:56.060Z,58.04
2019-01-21T04:39:12.262Z,57.93
2019-01-21T04:41:14.692Z,57.83
2019-01-21T04:43:01.663Z,57.81
2019-01-21T04:44:49.861Z,57.72
2019-01-21T04:46:26.453Z,57.64
2019-01-21T04:47:55.802Z,57.62
2019-01-21T04:49:28.169Z,57.55
2019-01-21T04:51:04.340Z,57.50
2019-01-21T04:52:41.142Z,57.50
2019-01-21T04:54:20.922Z,57.55
2019-01-21T04:55:42.155Z,57.56
2019-01-21T04:57:27.655Z,57.53
2019-01-21T04:59:02.344Z,57.51
2019-01-21T05:00:52.749Z,57.50
2019-01-21T05:02:33.047Z,57.47
2019-01-21T05:04:20.202Z,57.45
2019-01-21T05:05:52.579Z,57.40
2019-01-21T05:07:32.349Z,57.42
2019-01-21T05:09:11.757Z,57.49
2019-01-21T05:10:46.204Z,57.49
2019-01-21T05:12:04.089Z,57.43
2019-01-21T05:13:45.574Z,57.40
2019-01-21T05:15:30.565Z,57.42
2019-01-21T05:17:17.270Z,57.48
2019-01-21T05:18:52.475Z,57.50
2019-01-21T05:20:40.251Z,57.49
2019-01-21T05:22:42.976Z,57.49
2019-01-21T05:24:20.869Z,57.50
2019-01-21T05:26:23.989Z,57.51
2019-01-21T05:27:55.204Z,57.51
2019-01-21T05:29:20.779Z,57.39
2019-01-21T05:30:45.494Z,57.36
2019-01-21T05:32:35.875Z,57.44
2019-01-21T05:33:56.826Z,57.50
2019-01-21T05:35:29.005Z,57.55
2019-01-21T05:37:11.816Z,57.63
2019-01-21T05:38:42.654Z,57.64
2019-01-21T05:40:13.389Z,57.67
2019-01-21T05:41:53.124Z,57.63
2019-01-21T05:43:34.268Z,57.56
2019-01-21T05:45:17.122Z,57.63
2019-01-21T05:46:51.289Z,57.71
2019-01-21T05:48:48.857Z,57.74
2019-01-21T05:50:05.849Z,57.73
2019-01-21T05:51:48.886Z,57.81
2019-01-21T05:53:30.141Z,57.86
2019-01-21T05:55:02.832Z,57.89
2019-01-21T05:56:30.566Z,57.92
2019-01-21T05:58:11.023Z,57.95
2019-01-21T06:00:04.969Z,57.97
2019-01-21T06:02:11.885Z,58.02
2019-01-21T06:03:54.394Z,58.02
2019-01-21T06:05:32.905Z,57.90
2019-01-21T06:07:16.985Z,57.87
2019-01-21T06:08:55.567Z,57.88
2019-01-21T06:10:14.468Z,57.87
2019-01-21T06:11:53.347Z,57.91
2019-01-21T06:13:41.487Z,57.94
2019-01-21T06:15:11.606Z,57.88
2019-01-21T06:16:41.879Z,57.81
2019-01-21T06:18:14.165Z,57.76
2019-01-21T06:19:42.228Z,57.72
2019-01-21T06:21:35.665Z,57.61
2019-01-21T06:23:09.528Z,57.59
2019-01-21T06:24:34.201Z,57.63
2019-01-21T06:26:11.600Z,57.71
2019-01-21T06:27:38.700Z,57.74
2019-01-21T06:29:18.905Z,57.75
2019-01-21T06:30:55.461Z,57.69
2019-01-21T06:32:41.765Z,57.69
2019-01-21T06:34:13.857Z,58.37
2019-01-21T06:35:39.482Z,59.28
2019-01-21T06:37:22.019Z,59.89
2019-01-21T06:39:17.977Z,59.93
2019-01-21T06:40:57.559Z,60.82
2019-01-21T06:42:48.374Z,60.97
2019-01-21T06:44:42.598Z,60.58
2019-01-21T06:46:25.545Z,59.67
2019-01-21T06:48:18.581Z,58.92
2019-01-21T06:50:12.701Z,58.05
2019-01-21T06:51:53.820Z,57.56
2019-01-21T06:53:45.114Z,57.18
2019-01-21T06:55:33.621Z,57.05
2019-01-21T06:57:20.794Z,56.85
2019-01-21T06:59:02.352Z,56.93
2019-01-21T07:00:44.314Z,56.88
2019-01-21T07:04:15.286Z,57.01
2019-01-21T07:06:21.581Z,57.23
2019-01-21T07:07:56.393Z,57.43
2019-01-21T07:09:19.325Z,57.53
2019-01-21T07:10:39.119Z,57.48
2019-01-21T07:11:58.693Z,57.45
2019-01-21T07:13:49.969Z,57.39
2019-01-21T07:15:24.222Z,57.37
2019-01-21T07:16:50.426Z,57.30
2019-01-21T07:18:12.253Z,57.23
2019-01-21T07:19:36.500Z,57.24
2019-01-21T07:20:54.504Z,57.17
2019-01-21T07:22:22.285Z,57.17
2019-01-21T07:24:06.424Z,57.20
2019-01-21T07:25:53.971Z,57.18
2019-01-21T07:27:23.773Z,57.17
2019-01-21T07:29:05.155Z,57.23
2019-01-21T07:30:35.569Z,57.20
2019-01-21T07:32:03.448Z,57.20
2019-01-21T07:33:31.825Z,57.14
2019-01-21T07:35:24.604Z,57.04
2019-01-21T07:37:07.361Z,57.00
2019-01-21T07:38:32.329Z,57.07
2019-01-21T07:40:20.832Z,57.10
2019-01-21T07:41:45.169Z,57.13
2019-01-21T07:43:06.811Z,57.10
2019-01-21T07:44:52.496Z,57.08
2019-01-21T07:46:56.148Z,57.07
2019-01-21T07:48:39.969Z,57.08
2019-01-21T07:50:18.952Z,57.13
2019-01-21T07:51:59.261Z,57.16
2019-01-21T07:53:32.882Z,57.19
2019-01-21T07:55:15.393Z,57.18
2019-01-21T07:57:18.949Z,57.20
2019-01-21T07:59:26.028Z,57.17
2019-01-21T08:01:06.897Z,57.11
2019-01-21T08:03:16.328Z,57.08
2019-01-21T08:04:41.724Z,57.06
2019-01-21T08:06:11.048Z,57.05
2019-01-21T08:07:36.269Z,57.00
2019-01-21T08:09:19.789Z,56.96
2019-01-21T08:11:17.243Z,56.93
2019-01-21T08:12:48.774Z,56.89
2019-01-21T08:14:18.134Z,56.95
2019-01-21T08:15:39.421Z,56.93
2019-01-21T08:17:24.910Z,56.89
2019-01-21T08:18:53.428Z,56.83
2019-01-21T08:20:21.862Z,56.82
2019-01-21T08:22:18.914Z,56.95
2019-01-21T08:23:51.397Z,56.95
2019-01-21T08:25:26.244Z,56.90
2019-01-21T08:26:52.953Z,56.91
2019-01-21T08:28:21.841Z,56.88
2019-01-21T08:30:13.119Z,56.82
2019-01-21T08:31:49.140Z,56.69
2019-01-21T08:33:25.310Z,56.55
2019-01-21T08:35:06.300Z,56.52
2019-01-21T08:36:34.937Z,56.49
2019-01-21T08:38:19.894Z,56.44
2019-01-21T08:39:50.551Z,56.40
2019-01-21T08:41:24.003Z,56.39
2019-01-21T08:43:04.511Z,56.40
2019-01-21T08:44:45.628Z,56.31
2019-01-21T08:46:26.375Z,56.30
2019-01-21T08:48:07.422Z,56.33
2019-01-21T08:50:07.621Z,56.30
2019-01-21T08:51:29.243Z,56.26
2019-01-21T08:53:12.857Z,56.16
2019-01-21T08:54:52.335Z,56.11
2019-01-21T08:56:22.067Z,56.11
2019-01-21T08:58:01.571Z,56.13
2019-01-21T08:59:22.061Z,56.25
2019-01-21T09:00:42.183Z,56.33
2019-01-21T09:02:45.229Z,56.37
2019-01-21T09:04:13.770Z,56.41
2019-01-21T09:06:10.257Z,56.42
2019-01-21T09:07:44.346Z,56.46
2019-01-21T09:09:07.819Z,56.53
2019-01-21T09:10:23.166Z,56.55
2019-01-21T09:12:29.693Z,56.52
2019-01-21T09:13:55.252Z,56.53
2019-01-21T09:15:24.428Z,56.55
2019-01-21T09:16:52.410Z,56.58
2019-01-21T09:18:19.324Z,56.62
2019-01-21T09:20:10.480Z,56.68
2019-01-21T09:21:43.253Z,56.72
2019-01-21T09:23:25.461Z,56.71
2019-01-21T09:25:07.423Z,56.70
2019-01-21T09:26:38.491Z,56.70
2019-01-21T09:28:20.651Z,56.69
2019-01-21T09:29:59.204Z,56.70
2019-01-21T09:31:24.556Z,56.76
2019-01-21T09:33:06.904Z,56.86
2019-01-21T09:34:47.621Z,56.96
2019-01-21T09:36:40.554Z,57.01
2019-01-21T09:38:49.864Z,57.03
2019-01-21T09:40:47.921Z,57.09
2019-01-21T09:42:17.395Z,57.14
2019-01-21T09:43:31.008Z,57.15
2019-01-21T09:44:59.813Z,57.16
2019-01-21T09:46:39.297Z,57.18
2019-01-21T09:47:41.735Z,57.16
2019-01-21T09:48:44.141Z,57.19
2019-01-21T09:49:48.445Z,57.32
2019-01-21T09:50:52.546Z,57.35
2019-01-21T09:52:18.443Z,57.37
2019-01-21T09:53:22.473Z,57.41
2019-01-21T09:54:26.979Z,57.35
2019-01-21T09:55:31.078Z,57.36
2019-01-21T09:56:35.096Z,57.42
2019-01-21T09:57:39.197Z,57.44
2019-01-21T09:58:44.514Z,57.48
2019-01-21T09:59:52.312Z,57.51
2019-01-21T10:00:57.854Z,57.53
2019-01-21T10:02:05.440Z,57.55
2019-01-21T10:03:12.080Z,57.56
2019-01-21T10:04:23.362Z,57.63
2019-01-21T10:05:30.934Z,57.67
2019-01-21T10:07:16.044Z,57.72
2019-01-21T10:08:30.441Z,57.77
2019-01-21T10:09:57.452Z,57.78
2019-01-21T10:11:32.689Z,57.87
2019-01-21T10:13:14.001Z,57.92
2019-01-21T10:14:59.631Z,57.93
2019-01-21T10:16:47.735Z,57.95
2019-01-21T10:18:28.857Z,57.95
2019-01-21T10:19:55.729Z,58.01
2019-01-21T10:21:32.224Z,58.07
2019-01-21T10:23:37.015Z,58.16
2019-01-21T10:25:02.568Z,58.20
2019-01-21T10:26:57.837Z,58.18
2019-01-21T10:28:45.435Z,58.23
2019-01-21T10:30:09.611Z,58.17
2019-01-21T10:31:59.471Z,58.15
2019-01-21T10:33:43.761Z,58.15
2019-01-21T10:35:23.984Z,58.16
2019-01-21T10:37:03.376Z,58.14
2019-01-21T10:38:35.210Z,58.14
2019-01-21T10:40:18.509Z,58.13
2019-01-21T10:41:36.531Z,58.12
2019-01-21T10:43:06.448Z,58.05
2019-01-21T10:44:35.769Z,58.06
2019-01-21T10:45:49.974Z,58.09
2019-01-21T10:47:10.984Z,58.16
2019-01-21T10:48:31.577Z,58.20
2019-01-21T10:50:14.341Z,58.17
2019-01-21T10:51:44.434Z,58.13
2019-01-21T10:53:15.708Z,58.08
2019-01-21T10:54:57.733Z,58.08
2019-01-21T10:56:30.192Z,58.12
2019-01-21T10:57:55.880Z,58.09
2019-01-21T10:59:55.115Z,57.99
2019-01-21T11:01:26.529Z,57.95
2019-01-21T11:03:10.105Z,57.92
2019-01-21T11:04:40.108Z,57.96
2019-01-21T11:06:10.208Z,57.93
2019-01-21T11:07:47.116Z,57.89
2019-01-21T11:09:35.283Z,57.83
2019-01-21T11:10:56.744Z,57.69
2019-01-21T11:12:22.877Z,57.55
2019-01-21T11:13:55.616Z,57.46
2019-01-21T11:15:47.321Z,57.41
2019-01-21T11:17:23.768Z,57.46
2019-01-21T11:18:56.553Z,57.36
2019-01-21T11:20:56.824Z,57.27
2019-01-21T11:22:13.218Z,57.18
2019-01-21T11:23:46.400Z,57.05
2019-01-21T11:25:12.561Z,56.94
2019-01-21T11:26:52.812Z,56.86
2019-01-21T11:28:10.869Z,56.86
2019-01-21T11:29:54.334Z,56.82
2019-01-21T11:31:45.323Z,56.76
2019-01-21T11:33:16.693Z,56.64
2019-01-21T11:35:19.731Z,56.58
2019-01-21T11:37:04.659Z,56.43
2019-01-21T11:38:31.401Z,56.31
2019-01-21T11:39:53.489Z,56.19
2019-01-21T11:41:41.228Z,56.11
2019-01-21T11:43:14.043Z,56.01
2019-01-21T11:45:08.016Z,55.97
2019-01-21T11:46:23.485Z,55.92
2019-01-21T11:48:04.644Z,55.85
2019-01-21T11:49:54.964Z,55.69
2019-01-21T11:51:15.672Z,55.50
2019-01-21T11:52:42.476Z,55.46
2019-01-21T11:54:16.659Z,55.37
2019-01-21T11:56:14.020Z,55.07
2019-01-21T11:58:02.028Z,54.94
2019-01-21T11:59:53.005Z,54.82
2019-01-21T12:01:10.495Z,54.70
2019-01-21T12:02:37.626Z,54.54
2019-01-21T12:03:57.276Z,54.42
2019-01-21T12:05:19.780Z,54.38
2019-01-21T12:06:33.779Z,54.25
2019-01-21T12:08:29.479Z,53.86
2019-01-21T12:10:17.802Z,53.75
2019-01-21T12:12:00.274Z,53.71
2019-01-21T12:13:59.208Z,53.59
2019-01-21T12:15:44.372Z,53.52
2019-01-21T12:17:23.404Z,53.10
2019-01-21T12:18:55.259Z,52.90
2019-01-21T12:20:19.821Z,52.95
2019-01-21T12:22:08.271Z,52.37
2019-01-21T12:23:59.297Z,52.16
2019-01-21T12:25:10.984Z,52.27
2019-01-21T12:26:45.257Z,52.46
2019-01-21T12:28:19.608Z,52.42
2019-01-21T12:29:49.325Z,52.32
2019-01-21T12:31:34.628Z,52.22
2019-01-21T12:33:01.908Z,52.15
2019-01-21T12:34:55.160Z,52.14
2019-01-21T12:36:12.986Z,52.06
2019-01-21T12:37:26.808Z,52.14
2019-01-21T12:38:54.984Z,52.06
2019-01-21T12:40:26.640Z,52.02
2019-01-21T12:42:01.779Z,52.01
2019-01-21T12:43:21.330Z,52.00
2019-01-21T12:45:19.102Z,51.78
2019-01-21T12:46:47.654Z,51.26
2019-01-21T12:48:31.712Z,51.21
2019-01-21T12:49:53.940Z,50.86
2019-01-21T12:51:19.858Z,50.93
2019-01-21T12:53:10.817Z,50.82
2019-01-21T12:55:14.542Z,50.84
2019-01-21T12:57:11.992Z,50.96
2019-01-21T12:58:59.846Z,51.13
2019-01-21T13:00:50.024Z,51.15
2019-01-21T13:02:11.755Z,51.01
2019-01-21T13:03:51.887Z,51.01
2019-01-21T13:05:20.710Z,50.87
2019-01-21T13:07:02.139Z,50.57
2019-01-21T13:08:22.137Z,50.31
2019-01-21T13:09:53.940Z,50.36
2019-01-21T13:11:13.528Z,50.28
2019-01-21T13:12:48.970Z,50.25
2019-01-21T13:14:27.605Z,50.18
2019-01-21T13:15:50.685Z,50.11
2019-01-21T13:17:21.705Z,50.16
2019-01-21T13:19:13.585Z,50.10
2019-01-21T13:21:03.595Z,50.05
2019-01-21T13:22:51.595Z,49.96
2019-01-21T13:24:08.812Z,49.91
2019-01-21T13:25:52.440Z,49.92
2019-01-21T13:27:16.532Z,49.77
2019-01-21T13:29:03.519Z,49.74
2019-01-21T13:30:18.499Z,49.59
2019-01-21T13:32:03.951Z,49.62
2019-01-21T13:33:33.904Z,49.47
2019-01-21T13:35:30.087Z,49.38
2019-01-21T13:36:57.456Z,49.38
2019-01-21T13:38:19.695Z,49.48
2019-01-21T13:40:02.552Z,49.34
2019-01-21T13:42:05.977Z,49.34
2019-01-21T13:43:38.784Z,49.37
2019-01-21T13:45:15.136Z,49.39
2019-01-21T13:47:18.164Z,49.28
2019-01-21T13:49:00.004Z,49.25
2019-01-21T13:50:36.955Z,49.23
2019-01-21T13:52:05.861Z,49.16
2019-01-21T13:53:59.609Z,49.02
2019-01-21T13:55:18.402Z,49.05
2019-01-21T13:56:37.447Z,49.13
2019-01-21T13:57:57.092Z,49.09
2019-01-21T13:59:56.122Z,49.06
2019-01-21T14:01:25.195Z,49.03
2019-01-21T14:02:40.098Z,48.14
2019-01-21T14:04:10.276Z,48.49
2019-01-21T14:05:35.340Z,48.70
2019-01-21T14:07:07.518Z,48.58
2019-01-21T14:08:40.892Z,48.63
2019-01-21T14:10:06.137Z,48.81
2019-01-21T14:11:18.995Z,48.90
2019-01-21T14:13:00.665Z,48.96
2019-01-21T14:14:30.414Z,48.73
2019-01-21T14:16:12.208Z,48.75
2019-01-21T14:17:55.803Z,48.64
2019-01-21T14:19:36.185Z,48.33
2019-01-21T14:21:02.687Z,48.34
2019-01-21T14:22:35.966Z,48.67
2019-01-21T14:23:52.884Z,48.93
2019-01-21T14:25:32.828Z,49.06
2019-01-21T14:27:00.785Z,49.01
2019-01-21T14:28:57.317Z,49.08
2019-01-21T14:30:11.600Z,49.10
2019-01-21T14:31:56.572Z,49.21
2019-01-21T14:33:46.948Z,49.17
2019-01-21T14:35:20.526Z,49.16
2019-01-21T14:36:55.408Z,49.15
2019-01-21T14:38:49.271Z,49.12
2019-01-21T14:40:15.858Z,49.22
2019-01-21T14:41:54.319Z,49.35
2019-01-21T14:43:51.380Z,49.35
2019-01-21T14:45:32.554Z,49.39
2019-01-21T14:47:02.047Z,49.49
2019-01-21T14:48:34.921Z,49.59
2019-01-21T14:49:56.810Z,49.82
2019-01-21T14:51:49.782Z,50.07
2019-01-21T14:53:28.864Z,50.19
2019-01-21T14:55:22.935Z,50.33
2019-01-21T14:57:07.333Z,50.39
2019-01-21T14:58:27.457Z,50.48
2019-01-21T15:00:03.586Z,50.58
2019-01-21T15:01:48.052Z,50.64
2019-01-21T15:03:36.872Z,50.77
2019-01-21T15:04:56.218Z,50.88
2019-01-21T15:06:26.701Z,50.95
2019-01-21T15:08:04.850Z,51.10
2019-01-21T15:09:40.688Z,51.29
2019-01-21T15:11:20.704Z,51.47
2019-01-21T15:12:51.007Z,51.63
2019-01-21T15:14:19.418Z,51.85
2019-01-21T15:15:50.878Z,52.02
2019-01-21T15:17:45.571Z,52.09
2019-01-21T15:19:05.094Z,52.18
2019-01-21T15:20:33.031Z,52.23
2019-01-21T15:22:33.775Z,52.29
2019-01-21T15:24:28.037Z,52.36
2019-01-21T15:26:03.523Z,52.35
2019-01-21T15:27:48.394Z,52.33
2019-01-21T15:29:24.615Z,52.40
2019-01-21T15:31:15.620Z,52.43
2019-01-21T15:32:48.157Z,52.48
2019-01-21T15:34:15.551Z,52.48
2019-01-21T15:35:57.242Z,52.53
2019-01-21T15:37:19.583Z,52.59
2019-01-21T15:39:08.063Z,52.65
2019-01-21T15:40:45.788Z,52.69
2019-01-21T15:42:36.716Z,52.71
2019-01-21T15:44:08.200Z,52.78
2019-01-21T15:45:55.551Z,52.88
2019-01-21T15:47:38.428Z,52.92
2019-01-21T15:49:04.092Z,52.99
2019-01-21T15:50:28.845Z,53.11
2019-01-21T15:51:58.584Z,53.23
2019-01-21T15:53:46.792Z,53.39
2019-01-21T15:55:16.343Z,53.45
2019-01-21T15:56:51.307Z,53.44
2019-01-21T15:58:19.107Z,53.52
2019-01-21T15:59:48.968Z,53.57
2019-01-21T16:01:39.469Z,53.70
2019-01-21T16:03:24.945Z,53.87
2019-01-21T16:04:55.532Z,54.10
2019-01-21T16:06:11.438Z,54.18
2019-01-21T16:07:27.264Z,54.23
2019-01-21T16:08:57.049Z,54.31
2019-01-21T16:11:00.188Z,54.36
2019-01-21T16:12:47.536Z,54.33
2019-01-21T16:13:56.990Z,54.36
2019-01-21T16:15:45.002Z,54.57
2019-01-21T16:17:34.570Z,54.73
2019-01-21T16:19:00.370Z,54.66
2019-01-21T16:20:27.186Z,54.66
2019-01-21T16:22:10.743Z,54.76
2019-01-21T16:24:08.303Z,54.79
2019-01-21T16:25:37.619Z,54.78
2019-01-21T16:26:54.468Z,54.84
2019-01-21T16:28:16.724Z,54.96
2019-01-21T16:29:49.448Z,55.11
2019-01-21T16:31:01.765Z,55.16
2019-01-21T16:32:23.400Z,55.17
2019-01-21T16:34:07.502Z,55.18
2019-01-21T16:35:46.849Z,55.17
2019-01-21T16:37:02.111Z,55.16
2019-01-21T16:38:30.315Z,55.26
2019-01-21T16:40:09.012Z,55.34
2019-01-21T16:41:49.985Z,55.39
2019-01-21T16:42:54.005Z,55.48
2019-01-21T16:43:57.938Z,55.57
2019-01-21T16:45:02.479Z,55.72
2019-01-21T16:46:06.797Z,55.80
2019-01-21T16:47:11.160Z,55.83
2019-01-21T16:48:15.168Z,55.79
2019-01-21T16:49:19.088Z,55.76
2019-01-21T16:50:23.120Z,55.70
2019-01-21T16:51:27.713Z,55.69
2019-01-21T16:52:31.704Z,55.66
2019-01-21T16:53:35.715Z,55.61
2019-01-21T16:54:39.695Z,55.56
2019-01-21T16:55:43.617Z,55.53
2019-01-21T16:56:47.470Z,55.52
2019-01-21T16:57:51.485Z,55.51
2019-01-21T16:58:55.824Z,55.51
2019-01-21T16:59:59.824Z,55.50
2019-01-21T17:01:04.111Z,55.46
2019-01-21T17:02:08.109Z,55.45
2019-01-21T17:03:11.960Z,55.42
2019-01-21T17:04:15.957Z,55.44
2019-01-21T17:05:20.012Z,55.49
2019-01-21T17:06:23.956Z,55.51
2019-01-21T17:07:28.031Z,55.54
2019-01-21T17:08:32.840Z,55.53
2019-01-21T17:09:36.913Z,55.54
2019-01-21T17:10:41.216Z,55.53
2019-01-21T17:11:45.148Z,55.51
2019-01-21T17:12:48.997Z,55.52
2019-01-21T17:14:00.232Z,55.58
2019-01-21T17:15:04.987Z,55.67
2019-01-21T17:16:09.768Z,55.68
2019-01-21T17:17:13.860Z,55.69
2019-01-21T17:18:17.861Z,55.67
2019-01-21T17:19:21.853Z,55.64
2019-01-21T17:20:26.181Z,55.64
2019-01-21T17:21:30.179Z,55.63
2019-01-21T17:22:34.387Z,55.64
2019-01-21T17:23:38.398Z,55.65
2019-01-21T17:24:42.899Z,55.62
2019-01-21T17:25:47.502Z,55.60
2019-01-21T17:26:51.824Z,55.57
2019-01-21T17:27:55.911Z,55.58
2019-01-21T17:29:00.241Z,55.62
2019-01-21T17:30:05.420Z,55.68
2019-01-21T17:31:09.342Z,55.69
2019-01-21T17:32:13.335Z,55.74
2019-01-21T17:33:17.779Z,55.71
2019-01-21T17:34:21.794Z,55.70
2019-01-21T17:35:25.783Z,55.73
2019-01-21T17:36:29.994Z,55.71
2019-01-21T17:37:34.080Z,55.72
2019-01-21T17:38:38.091Z,55.74
2019-01-21T17:39:42.496Z,55.74
2019-01-21T17:40:46.487Z,55.72
2019-01-21T17:41:51.012Z,55.72
2019-01-21T17:42:55.009Z,55.72
2019-01-21T17:43:59.093Z,55.70
2019-01-21T17:45:03.423Z,55.69
2019-01-21T17:46:07.479Z,55.69
2019-01-21T17:47:11.940Z,55.69
2019-01-21T17:48:15.864Z,55.70
2019-01-21T17:49:19.891Z,55.69
2019-01-21T17:50:24.144Z,55.69
2019-01-21T17:51:33.772Z,55.68
2019-01-21T17:52:34.297Z,55.67
2019-01-21T17:53:38.391Z,55.67
2019-01-21T17:54:42.456Z,55.68
2019-01-21T17:55:46.383Z,55.65
2019-01-21T17:56:50.740Z,55.66
2019-01-21T17:57:55.427Z,55.66
2019-01-21T17:58:59.396Z,55.66
2019-01-21T18:00:03.735Z,55.75
2019-01-21T18:01:08.071Z,55.82
2019-01-21T18:02:12.083Z,55.76
2019-01-21T18:03:16.004Z,55.73
2019-01-21T18:04:20.015Z,55.75
2019-01-21T18:05:24.259Z,55.77
2019-01-21T18:06:28.565Z,55.83
2019-01-21T18:07:32.975Z,55.90
2019-01-21T18:08:37.183Z,55.86
2019-01-21T18:09:42.447Z,55.84
2019-01-21T18:10:46.363Z,55.90
2019-01-21T18:11:50.603Z,55.97
2019-01-21T18:12:54.591Z,55.94
2019-01-21T18:13:58.499Z,55.97
2019-01-21T18:15:02.831Z,55.99
2019-01-21T18:16:06.826Z,56.01
2019-01-21T18:17:10.811Z,56.03
2019-01-21T18:18:15.231Z,56.05
2019-01-21T18:19:19.220Z,56.05
2019-01-21T18:20:26.359Z,56.05
2019-01-21T18:21:30.528Z,56.03
2019-01-21T18:22:34.688Z,56.01
2019-01-21T18:23:38.920Z,56.00
2019-01-21T18:24:43.161Z,55.98
2019-01-21T18:25:47.181Z,55.95
2019-01-21T18:26:51.419Z,55.97
2019-01-21T18:27:55.261Z,56.02
2019-01-21T18:28:59.645Z,56.02
2019-01-21T18:30:05.388Z,56.05
2019-01-21T18:31:09.411Z,56.09
2019-01-21T18:32:13.403Z,56.12